sensor_id;sensor_type;location;lat;lon;timestamp;pressure;altitude;pressure_sealevel;temperature
65290;BMP180;51893;59.754;10.110;2023-04-24T00:01:57;100198.80;;;7.50
65290;BMP180;51893;59.754;10.110;2023-04-24T00:04:29;100199.40;;;7.50
65290;BMP180;51893;59.754;10.110;2023-04-24T00:06:58;100200.60;;;7.44
65290;BMP180;51893;59.754;10.110;2023-04-24T00:09:27;100200.60;;;7.50
65290;BMP180;51893;59.754;10.110;2023-04-24T00:11:55;100197.60;;;7.50
65290;BMP180;51893;59.754;10.110;2023-04-24T00:14:26;100196.20;;;7.50
65290;BMP180;51893;59.754;10.110;2023-04-24T00:16:54;100194.40;;;7.50
65290;BMP180;51893;59.754;10.110;2023-04-24T00:19:22;100196.40;;;7.42
65290;BMP180;51893;59.754;10.110;2023-04-24T00:21:52;100195.60;;;7.40
65290;BMP180;51893;59.754;10.110;2023-04-24T00:24:22;100193.40;;;7.40
65290;BMP180;51893;59.754;10.110;2023-04-24T00:26:50;100190.20;;;7.40
65290;BMP180;51893;59.754;10.110;2023-04-24T00:29:19;100190.80;;;7.30
65290;BMP180;51893;59.754;10.110;2023-04-24T00:31:47;100191.60;;;7.30
65290;BMP180;51893;59.754;10.110;2023-04-24T00:34:17;100190.60;;;7.20
65290;BMP180;51893;59.754;10.110;2023-04-24T00:36:45;100193.00;;;7.20
65290;BMP180;51893;59.754;10.110;2023-04-24T00:39:13;100194.80;;;7.20
65290;BMP180;51893;59.754;10.110;2023-04-24T00:41:42;100192.80;;;7.12
65290;BMP180;51893;59.754;10.110;2023-04-24T00:44:10;100195.00;;;7.10
65290;BMP180;51893;59.754;10.110;2023-04-24T00:46:43;100191.80;;;7.10
65290;BMP180;51893;59.754;10.110;2023-04-24T00:49:13;100194.20;;;7.10
65290;BMP180;51893;59.754;10.110;2023-04-24T00:51:41;100194.00;;;7.10
65290;BMP180;51893;59.754;10.110;2023-04-24T00:54:13;100187.00;;;7.10
65290;BMP180;51893;59.754;10.110;2023-04-24T00:56:42;100184.60;;;7.10
65290;BMP180;51893;59.754;10.110;2023-04-24T00:59:17;100180.60;;;7.18
65290;BMP180;51893;59.754;10.110;2023-04-24T01:01:46;100181.20;;;7.10
65290;BMP180;51893;59.754;10.110;2023-04-24T01:04:16;100175.60;;;7.10
65290;BMP180;51893;59.754;10.110;2023-04-24T01:06:49;100176.60;;;7.10
65290;BMP180;51893;59.754;10.110;2023-04-24T01:09:23;100177.20;;;7.00
65290;BMP180;51893;59.754;10.110;2023-04-24T01:11:53;100173.20;;;7.00
65290;BMP180;51893;59.754;10.110;2023-04-24T01:14:22;100174.00;;;6.90
65290;BMP180;51893;59.754;10.110;2023-04-24T01:16:50;100173.20;;;6.90
65290;BMP180;51893;59.754;10.110;2023-04-24T01:19:19;100174.60;;;6.90
65290;BMP180;51893;59.754;10.110;2023-04-24T01:21:54;100172.20;;;6.88
65290;BMP180;51893;59.754;10.110;2023-04-24T01:24:28;100173.80;;;6.80
65290;BMP180;51893;59.754;10.110;2023-04-24T01:26:56;100172.60;;;6.80
65290;BMP180;51893;59.754;10.110;2023-04-24T01:29:24;100178.00;;;6.80
65290;BMP180;51893;59.754;10.110;2023-04-24T01:31:54;100175.80;;;6.80
65290;BMP180;51893;59.754;10.110;2023-04-24T01:34:22;100171.00;;;6.80
65290;BMP180;51893;59.754;10.110;2023-04-24T01:36:51;100171.80;;;6.80
65290;BMP180;51893;59.754;10.110;2023-04-24T01:39:19;100174.00;;;6.80
65290;BMP180;51893;59.754;10.110;2023-04-24T01:41:49;100178.20;;;6.80
65290;BMP180;51893;59.754;10.110;2023-04-24T01:44:21;100173.40;;;6.76
65290;BMP180;51893;59.754;10.110;2023-04-24T01:46:52;100175.80;;;6.70
65290;BMP180;51893;59.754;10.110;2023-04-24T01:49:22;100172.40;;;6.70
65290;BMP180;51893;59.754;10.110;2023-04-24T01:51:58;100171.80;;;6.70
65290;BMP180;51893;59.754;10.110;2023-04-24T01:54:26;100171.80;;;6.70
65290;BMP180;51893;59.754;10.110;2023-04-24T01:56:55;100168.20;;;6.70
65290;BMP180;51893;59.754;10.110;2023-04-24T01:59:25;100174.60;;;6.70
65290;BMP180;51893;59.754;10.110;2023-04-24T02:02:00;100177.80;;;6.70
65290;BMP180;51893;59.754;10.110;2023-04-24T02:04:28;100176.80;;;6.70
65290;BMP180;51893;59.754;10.110;2023-04-24T02:06:56;100174.20;;;6.64
65290;BMP180;51893;59.754;10.110;2023-04-24T02:09:24;100179.00;;;6.60
65290;BMP180;51893;59.754;10.110;2023-04-24T02:11:54;100174.60;;;6.60
65290;BMP180;51893;59.754;10.110;2023-04-24T02:14:22;100175.20;;;6.64
65290;BMP180;51893;59.754;10.110;2023-04-24T02:16:50;100175.20;;;6.70
65290;BMP180;51893;59.754;10.110;2023-04-24T02:19:19;100170.80;;;6.60
65290;BMP180;51893;59.754;10.110;2023-04-24T02:21:47;100173.60;;;6.64
65290;BMP180;51893;59.754;10.110;2023-04-24T02:24:18;100171.20;;;6.60
65290;BMP180;51893;59.754;10.110;2023-04-24T02:26:47;100167.00;;;6.60
65290;BMP180;51893;59.754;10.110;2023-04-24T02:29:14;100168.00;;;6.60
65290;BMP180;51893;59.754;10.110;2023-04-24T02:31:45;100166.00;;;6.60
65290;BMP180;51893;59.754;10.110;2023-04-24T02:34:13;100164.20;;;6.50
65290;BMP180;51893;59.754;10.110;2023-04-24T02:36:42;100169.80;;;6.50
65290;BMP180;51893;59.754;10.110;2023-04-24T02:39:10;100170.40;;;6.50
65290;BMP180;51893;59.754;10.110;2023-04-24T02:41:38;100166.80;;;6.50
65290;BMP180;51893;59.754;10.110;2023-04-24T02:44:06;100172.60;;;6.50
65290;BMP180;51893;59.754;10.110;2023-04-24T02:46:34;100170.20;;;6.50
65290;BMP180;51893;59.754;10.110;2023-04-24T02:49:04;100168.60;;;6.50
65290;BMP180;51893;59.754;10.110;2023-04-24T02:51:33;100166.80;;;6.50
65290;BMP180;51893;59.754;10.110;2023-04-24T02:54:01;100166.20;;;6.40
65290;BMP180;51893;59.754;10.110;2023-04-24T02:56:31;100166.80;;;6.40
65290;BMP180;51893;59.754;10.110;2023-04-24T02:59:00;100159.40;;;6.40
65290;BMP180;51893;59.754;10.110;2023-04-24T03:01:29;100154.40;;;6.40
65290;BMP180;51893;59.754;10.110;2023-04-24T03:03:57;100160.80;;;6.40
65290;BMP180;51893;59.754;10.110;2023-04-24T03:06:26;100157.60;;;6.40
65290;BMP180;51893;59.754;10.110;2023-04-24T03:08:54;100159.00;;;6.40
65290;BMP180;51893;59.754;10.110;2023-04-24T03:11:24;100163.60;;;6.50
65290;BMP180;51893;59.754;10.110;2023-04-24T03:13:53;100161.80;;;6.50
65290;BMP180;51893;59.754;10.110;2023-04-24T03:16:22;100154.20;;;6.50
65290;BMP180;51893;59.754;10.110;2023-04-24T03:18:52;100152.20;;;6.46
65290;BMP180;51893;59.754;10.110;2023-04-24T03:21:22;100153.80;;;6.40
65290;BMP180;51893;59.754;10.110;2023-04-24T03:23:53;100152.20;;;6.40
65290;BMP180;51893;59.754;10.110;2023-04-24T03:26:23;100150.20;;;6.40
65290;BMP180;51893;59.754;10.110;2023-04-24T03:28:51;100151.40;;;6.40
65290;BMP180;51893;59.754;10.110;2023-04-24T03:31:18;100147.20;;;6.40
65290;BMP180;51893;59.754;10.110;2023-04-24T03:33:49;100145.80;;;6.40
65290;BMP180;51893;59.754;10.110;2023-04-24T03:36:21;100144.60;;;6.40
65290;BMP180;51893;59.754;10.110;2023-04-24T03:38:49;100145.60;;;6.40
65290;BMP180;51893;59.754;10.110;2023-04-24T03:41:17;100145.80;;;6.40
65290;BMP180;51893;59.754;10.110;2023-04-24T03:43:48;100145.00;;;6.40
65290;BMP180;51893;59.754;10.110;2023-04-24T03:46:16;100147.60;;;6.40
65290;BMP180;51893;59.754;10.110;2023-04-24T03:48:44;100151.80;;;6.50
65290;BMP180;51893;59.754;10.110;2023-04-24T03:51:13;100151.20;;;6.50
65290;BMP180;51893;59.754;10.110;2023-04-24T03:53:41;100154.80;;;6.40
65290;BMP180;51893;59.754;10.110;2023-04-24T03:56:09;100152.80;;;6.30
65290;BMP180;51893;59.754;10.110;2023-04-24T03:58:37;100147.20;;;6.38
65290;BMP180;51893;59.754;10.110;2023-04-24T04:01:06;100144.60;;;6.30
65290;BMP180;51893;59.754;10.110;2023-04-24T04:03:34;100148.20;;;6.30
65290;BMP180;51893;59.754;10.110;2023-04-24T04:06:02;100151.60;;;6.30
65290;BMP180;51893;59.754;10.110;2023-04-24T04:08:31;100153.00;;;6.30
65290;BMP180;51893;59.754;10.110;2023-04-24T04:10:59;100153.80;;;6.30
65290;BMP180;51893;59.754;10.110;2023-04-24T04:13:32;100157.80;;;6.30
65290;BMP180;51893;59.754;10.110;2023-04-24T04:16:01;100156.40;;;6.30
65290;BMP180;51893;59.754;10.110;2023-04-24T04:18:30;100156.20;;;6.30
65290;BMP180;51893;59.754;10.110;2023-04-24T04:21:01;100153.60;;;6.30
65290;BMP180;51893;59.754;10.110;2023-04-24T04:23:30;100151.40;;;6.30
65290;BMP180;51893;59.754;10.110;2023-04-24T04:25:59;100147.60;;;6.30
65290;BMP180;51893;59.754;10.110;2023-04-24T04:28:30;100143.60;;;6.24
65290;BMP180;51893;59.754;10.110;2023-04-24T04:31:03;100142.00;;;6.20
65290;BMP180;51893;59.754;10.110;2023-04-24T04:33:32;100142.60;;;6.14
65290;BMP180;51893;59.754;10.110;2023-04-24T04:36:01;100138.80;;;6.10
65290;BMP180;51893;59.754;10.110;2023-04-24T04:38:34;100138.40;;;6.08
65290;BMP180;51893;59.754;10.110;2023-04-24T04:41:03;100141.20;;;6.00
65290;BMP180;51893;59.754;10.110;2023-04-24T04:43:31;100142.40;;;6.00
65290;BMP180;51893;59.754;10.110;2023-04-24T04:46:01;100137.60;;;6.00
65290;BMP180;51893;59.754;10.110;2023-04-24T04:48:31;100134.00;;;6.00
65290;BMP180;51893;59.754;10.110;2023-04-24T04:50:59;100135.20;;;6.10
65290;BMP180;51893;59.754;10.110;2023-04-24T04:53:32;100130.40;;;6.10
65290;BMP180;51893;59.754;10.110;2023-04-24T04:56:01;100132.60;;;6.14
65290;BMP180;51893;59.754;10.110;2023-04-24T04:58:29;100133.20;;;6.20
65290;BMP180;51893;59.754;10.110;2023-04-24T05:00:57;100130.40;;;6.12
65290;BMP180;51893;59.754;10.110;2023-04-24T05:03:26;100129.80;;;6.10
65290;BMP180;51893;59.754;10.110;2023-04-24T05:05:57;100131.00;;;6.10
65290;BMP180;51893;59.754;10.110;2023-04-24T05:08:26;100132.20;;;6.10
65290;BMP180;51893;59.754;10.110;2023-04-24T05:10:55;100128.00;;;6.00
65290;BMP180;51893;59.754;10.110;2023-04-24T05:13:23;100120.60;;;6.00
65290;BMP180;51893;59.754;10.110;2023-04-24T05:16:06;100128.20;;;5.90
65290;BMP180;51893;59.754;10.110;2023-04-24T05:18:34;100125.60;;;5.90
65290;BMP180;51893;59.754;10.110;2023-04-24T05:21:03;100130.20;;;5.90
65290;BMP180;51893;59.754;10.110;2023-04-24T05:23:31;100127.00;;;6.00
65290;BMP180;51893;59.754;10.110;2023-04-24T05:25:59;100131.00;;;6.02
65290;BMP180;51893;59.754;10.110;2023-04-24T05:28:28;100131.40;;;6.10
65290;BMP180;51893;59.754;10.110;2023-04-24T05:30:56;100131.60;;;6.20
65290;BMP180;51893;59.754;10.110;2023-04-24T05:33:25;100131.80;;;6.20
65290;BMP180;51893;59.754;10.110;2023-04-24T05:35:56;100138.20;;;6.20
65290;BMP180;51893;59.754;10.110;2023-04-24T05:38:26;100145.00;;;6.18
65290;BMP180;51893;59.754;10.110;2023-04-24T05:40:55;100150.40;;;6.14
65290;BMP180;51893;59.754;10.110;2023-04-24T05:43:24;100150.60;;;6.10
65290;BMP180;51893;59.754;10.110;2023-04-24T05:45:55;100150.60;;;6.10
65290;BMP180;51893;59.754;10.110;2023-04-24T05:48:23;100148.40;;;6.00
65290;BMP180;51893;59.754;10.110;2023-04-24T05:50:52;100154.20;;;6.00
65290;BMP180;51893;59.754;10.110;2023-04-24T05:53:21;100156.80;;;6.00
65290;BMP180;51893;59.754;10.110;2023-04-24T05:55:49;100155.00;;;5.96
65290;BMP180;51893;59.754;10.110;2023-04-24T05:58:20;100154.20;;;5.90
65290;BMP180;51893;59.754;10.110;2023-04-24T06:00:49;100151.00;;;5.90
65290;BMP180;51893;59.754;10.110;2023-04-24T06:03:18;100148.20;;;5.90
65290;BMP180;51893;59.754;10.110;2023-04-24T06:05:50;100151.00;;;5.86
65290;BMP180;51893;59.754;10.110;2023-04-24T06:08:19;100150.00;;;5.80
65290;BMP180;51893;59.754;10.110;2023-04-24T06:10:47;100148.40;;;5.80
65290;BMP180;51893;59.754;10.110;2023-04-24T06:13:15;100151.40;;;5.80
65290;BMP180;51893;59.754;10.110;2023-04-24T06:15:44;100153.40;;;5.80
65290;BMP180;51893;59.754;10.110;2023-04-24T06:18:15;100157.20;;;5.80
65290;BMP180;51893;59.754;10.110;2023-04-24T06:20:45;100152.40;;;5.80
65290;BMP180;51893;59.754;10.110;2023-04-24T06:23:16;100156.20;;;5.80
65290;BMP180;51893;59.754;10.110;2023-04-24T06:25:45;100156.80;;;5.76
65290;BMP180;51893;59.754;10.110;2023-04-24T06:28:14;100153.00;;;5.70
65290;BMP180;51893;59.754;10.110;2023-04-24T06:30:45;100152.60;;;5.70
65290;BMP180;51893;59.754;10.110;2023-04-24T06:33:13;100154.00;;;5.70
65290;BMP180;51893;59.754;10.110;2023-04-24T06:35:47;100164.40;;;5.70
65290;BMP180;51893;59.754;10.110;2023-04-24T06:38:16;100160.80;;;5.70
65290;BMP180;51893;59.754;10.110;2023-04-24T06:40:45;100164.20;;;5.70
65290;BMP180;51893;59.754;10.110;2023-04-24T06:43:13;100162.20;;;5.70
65290;BMP180;51893;59.754;10.110;2023-04-24T06:45:46;100154.40;;;5.70
65290;BMP180;51893;59.754;10.110;2023-04-24T06:48:17;100153.60;;;5.70
65290;BMP180;51893;59.754;10.110;2023-04-24T06:50:45;100150.60;;;5.70
65290;BMP180;51893;59.754;10.110;2023-04-24T06:53:13;100147.40;;;5.70
65290;BMP180;51893;59.754;10.110;2023-04-24T06:55:43;100145.00;;;5.70
65290;BMP180;51893;59.754;10.110;2023-04-24T06:58:14;100147.40;;;5.70
65290;BMP180;51893;59.754;10.110;2023-04-24T07:00:46;100147.00;;;5.70
65290;BMP180;51893;59.754;10.110;2023-04-24T07:03:16;100149.80;;;5.78
65290;BMP180;51893;59.754;10.110;2023-04-24T07:05:48;100145.40;;;5.80
65290;BMP180;51893;59.754;10.110;2023-04-24T07:08:16;100144.60;;;5.80
65290;BMP180;51893;59.754;10.110;2023-04-24T07:10:46;100145.00;;;5.72
65290;BMP180;51893;59.754;10.110;2023-04-24T07:13:16;100142.60;;;5.70
65290;BMP180;51893;59.754;10.110;2023-04-24T07:15:44;100141.20;;;5.70
65290;BMP180;51893;59.754;10.110;2023-04-24T07:18:23;100136.80;;;5.70
65290;BMP180;51893;59.754;10.110;2023-04-24T07:20:52;100132.00;;;5.80
65290;BMP180;51893;59.754;10.110;2023-04-24T07:23:21;100137.20;;;5.80
65290;BMP180;51893;59.754;10.110;2023-04-24T07:25:51;100134.20;;;5.80
65290;BMP180;51893;59.754;10.110;2023-04-24T07:28:25;100137.60;;;5.80
65290;BMP180;51893;59.754;10.110;2023-04-24T07:30:57;100129.00;;;5.90
65290;BMP180;51893;59.754;10.110;2023-04-24T07:33:26;100127.00;;;5.90
65290;BMP180;51893;59.754;10.110;2023-04-24T07:35:57;100124.40;;;5.92
65290;BMP180;51893;59.754;10.110;2023-04-24T07:38:31;100123.60;;;5.90
65290;BMP180;51893;59.754;10.110;2023-04-24T07:41:01;100118.80;;;5.90
65290;BMP180;51893;59.754;10.110;2023-04-24T07:43:30;100122.40;;;5.90
65290;BMP180;51893;59.754;10.110;2023-04-24T07:46:03;100116.60;;;5.80
65290;BMP180;51893;59.754;10.110;2023-04-24T07:48:36;100110.00;;;5.80
65290;BMP180;51893;59.754;10.110;2023-04-24T07:51:04;100114.00;;;5.80
65290;BMP180;51893;59.754;10.110;2023-04-24T07:53:32;100109.80;;;5.80
65290;BMP180;51893;59.754;10.110;2023-04-24T07:56:01;100104.40;;;5.80
65290;BMP180;51893;59.754;10.110;2023-04-24T07:58:31;100112.40;;;5.80
65290;BMP180;51893;59.754;10.110;2023-04-24T08:01:00;100109.40;;;5.88
65290;BMP180;51893;59.754;10.110;2023-04-24T08:03:28;100112.80;;;5.88
65290;BMP180;51893;59.754;10.110;2023-04-24T08:05:56;100116.80;;;5.88
65290;BMP180;51893;59.754;10.110;2023-04-24T08:08:24;100117.00;;;5.88
65290;BMP180;51893;59.754;10.110;2023-04-24T08:10:53;100118.60;;;5.80
65290;BMP180;51893;59.754;10.110;2023-04-24T08:13:24;100118.40;;;5.80
65290;BMP180;51893;59.754;10.110;2023-04-24T08:15:54;100126.60;;;5.80
65290;BMP180;51893;59.754;10.110;2023-04-24T08:18:24;100129.40;;;5.80
65290;BMP180;51893;59.754;10.110;2023-04-24T08:20:56;100130.60;;;5.70
65290;BMP180;51893;59.754;10.110;2023-04-24T08:23:29;100131.60;;;5.70
65290;BMP180;51893;59.754;10.110;2023-04-24T08:25:57;100126.80;;;5.70
65290;BMP180;51893;59.754;10.110;2023-04-24T08:28:32;100127.00;;;5.70
65290;BMP180;51893;59.754;10.110;2023-04-24T08:31:01;100130.60;;;5.64
65290;BMP180;51893;59.754;10.110;2023-04-24T08:33:29;100126.00;;;5.60
65290;BMP180;51893;59.754;10.110;2023-04-24T08:36:04;100130.60;;;5.60
65290;BMP180;51893;59.754;10.110;2023-04-24T08:38:34;100138.40;;;5.60
65290;BMP180;51893;59.754;10.110;2023-04-24T08:41:02;100144.40;;;5.56
65290;BMP180;51893;59.754;10.110;2023-04-24T08:43:33;100147.20;;;5.56
65290;BMP180;51893;59.754;10.110;2023-04-24T08:46:05;100147.40;;;5.60
65290;BMP180;51893;59.754;10.110;2023-04-24T08:48:39;100150.20;;;5.60
65290;BMP180;51893;59.754;10.110;2023-04-24T08:51:08;100150.80;;;5.60
65290;BMP180;51893;59.754;10.110;2023-04-24T08:53:40;100149.00;;;5.60
65290;BMP180;51893;59.754;10.110;2023-04-24T08:56:09;100147.60;;;5.62
65290;BMP180;51893;59.754;10.110;2023-04-24T08:58:45;100150.20;;;5.60
65290;BMP180;51893;59.754;10.110;2023-04-24T09:01:19;100154.40;;;5.60
65290;BMP180;51893;59.754;10.110;2023-04-24T09:03:52;100154.00;;;5.60
65290;BMP180;51893;59.754;10.110;2023-04-24T09:06:21;100154.40;;;5.60
65290;BMP180;51893;59.754;10.110;2023-04-24T09:08:52;100160.40;;;5.60
65290;BMP180;51893;59.754;10.110;2023-04-24T09:11:24;100155.80;;;5.64
65290;BMP180;51893;59.754;10.110;2023-04-24T09:13:55;100164.20;;;5.60
65290;BMP180;51893;59.754;10.110;2023-04-24T09:16:26;100170.20;;;5.60
65290;BMP180;51893;59.754;10.110;2023-04-24T09:18:55;100174.20;;;5.60
65290;BMP180;51893;59.754;10.110;2023-04-24T09:21:33;100177.00;;;5.60
65290;BMP180;51893;59.754;10.110;2023-04-24T09:24:18;100171.80;;;5.60
65290;BMP180;51893;59.754;10.110;2023-04-24T09:26:57;100169.40;;;5.70
65290;BMP180;51893;59.754;10.110;2023-04-24T09:29:37;100170.60;;;5.70
65290;BMP180;51893;59.754;10.110;2023-04-24T09:32:21;100174.40;;;5.70
65290;BMP180;51893;59.754;10.110;2023-04-24T09:35:09;100169.20;;;5.70
65290;BMP180;51893;59.754;10.110;2023-04-24T09:37:40;100173.20;;;5.70
65290;BMP180;51893;59.754;10.110;2023-04-24T09:40:19;100175.00;;;5.70
65290;BMP180;51893;59.754;10.110;2023-04-24T09:42:56;100181.20;;;5.70
65290;BMP180;51893;59.754;10.110;2023-04-24T09:45:36;100180.00;;;5.80
65290;BMP180;51893;59.754;10.110;2023-04-24T09:48:05;100179.40;;;5.72
65290;BMP180;51893;59.754;10.110;2023-04-24T09:50:36;100184.40;;;5.80
65290;BMP180;51893;59.754;10.110;2023-04-24T09:53:06;100184.00;;;5.80
65290;BMP180;51893;59.754;10.110;2023-04-24T09:55:44;100187.00;;;5.90
65290;BMP180;51893;59.754;10.110;2023-04-24T09:58:16;100187.80;;;6.00
65290;BMP180;51893;59.754;10.110;2023-04-24T10:00:54;100186.00;;;6.00
65290;BMP180;51893;59.754;10.110;2023-04-24T10:03:25;100196.40;;;6.00
65290;BMP180;51893;59.754;10.110;2023-04-24T10:05:59;100190.80;;;6.00
65290;BMP180;51893;59.754;10.110;2023-04-24T10:08:34;100196.00;;;6.00
65290;BMP180;51893;59.754;10.110;2023-04-24T10:11:04;100197.40;;;6.00
65290;BMP180;51893;59.754;10.110;2023-04-24T10:13:36;100196.80;;;6.00
65290;BMP180;51893;59.754;10.110;2023-04-24T10:16:06;100196.40;;;6.00
65290;BMP180;51893;59.754;10.110;2023-04-24T10:18:35;100198.80;;;6.00
65290;BMP180;51893;59.754;10.110;2023-04-24T10:21:05;100195.20;;;6.00
65290;BMP180;51893;59.754;10.110;2023-04-24T10:23:33;100194.80;;;6.00
65290;BMP180;51893;59.754;10.110;2023-04-24T10:26:01;100197.40;;;6.00
65290;BMP180;51893;59.754;10.110;2023-04-24T10:28:31;100191.80;;;6.04
65290;BMP180;51893;59.754;10.110;2023-04-24T10:31:01;100189.20;;;6.10
65290;BMP180;51893;59.754;10.110;2023-04-24T10:33:32;100188.20;;;6.10
65290;BMP180;51893;59.754;10.110;2023-04-24T10:36:01;100192.60;;;6.10
65290;BMP180;51893;59.754;10.110;2023-04-24T10:38:30;100185.20;;;6.10
65290;BMP180;51893;59.754;10.110;2023-04-24T10:41:11;100192.00;;;6.10
65290;BMP180;51893;59.754;10.110;2023-04-24T10:44:15;100197.00;;;6.00
65290;BMP180;51893;59.754;10.110;2023-04-24T10:46:46;100197.20;;;6.00
65290;BMP180;51893;59.754;10.110;2023-04-24T10:49:31;100197.40;;;6.00
65290;BMP180;51893;59.754;10.110;2023-04-24T10:52:03;100198.20;;;6.00
65290;BMP180;51893;59.754;10.110;2023-04-24T10:54:48;100199.20;;;5.90
65290;BMP180;51893;59.754;10.110;2023-04-24T11:00:19;100202.20;;;5.90
65290;BMP180;51893;59.754;10.110;2023-04-24T11:02:53;100200.40;;;5.80
65290;BMP180;51893;59.754;10.110;2023-04-24T11:05:22;100201.20;;;5.70
65290;BMP180;51893;59.754;10.110;2023-04-24T11:08:15;100200.20;;;5.70
65290;BMP180;51893;59.754;10.110;2023-04-24T11:10:46;100203.00;;;5.70
65290;BMP180;51893;59.754;10.110;2023-04-24T11:13:24;100209.00;;;5.70
65290;BMP180;51893;59.754;10.110;2023-04-24T11:16:30;100209.80;;;5.70
65290;BMP180;51893;59.754;10.110;2023-04-24T11:19:07;100206.00;;;5.60
65290;BMP180;51893;59.754;10.110;2023-04-24T11:24:39;100212.00;;;5.50
65290;BMP180;51893;59.754;10.110;2023-04-24T11:27:21;100208.00;;;5.54
65290;BMP180;51893;59.754;10.110;2023-04-24T11:35:22;100209.00;;;5.40
65290;BMP180;51893;59.754;10.110;2023-04-24T11:37:55;100207.40;;;5.30
65290;BMP180;51893;59.754;10.110;2023-04-24T11:40:29;100210.20;;;5.30
65290;BMP180;51893;59.754;10.110;2023-04-24T11:43:00;100208.80;;;5.20
65290;BMP180;51893;59.754;10.110;2023-04-24T11:45:31;100209.80;;;5.20
65290;BMP180;51893;59.754;10.110;2023-04-24T11:47:59;100210.60;;;5.16
65290;BMP180;51893;59.754;10.110;2023-04-24T11:50:28;100209.40;;;5.20
65290;BMP180;51893;59.754;10.110;2023-04-24T11:52:57;100208.60;;;5.10
65290;BMP180;51893;59.754;10.110;2023-04-24T11:55:29;100213.60;;;5.06
65290;BMP180;51893;59.754;10.110;2023-04-24T11:57:59;100215.20;;;5.02
65290;BMP180;51893;59.754;10.110;2023-04-24T12:00:32;100214.00;;;5.10
65290;BMP180;51893;59.754;10.110;2023-04-24T12:03:13;100210.00;;;5.10
65290;BMP180;51893;59.754;10.110;2023-04-24T12:05:41;100214.00;;;5.10
65290;BMP180;51893;59.754;10.110;2023-04-24T12:08:10;100215.00;;;5.10
65290;BMP180;51893;59.754;10.110;2023-04-24T12:10:44;100218.40;;;5.10
65290;BMP180;51893;59.754;10.110;2023-04-24T12:13:12;100219.00;;;5.00
65290;BMP180;51893;59.754;10.110;2023-04-24T12:15:43;100214.20;;;4.92
65290;BMP180;51893;59.754;10.110;2023-04-24T12:18:13;100210.00;;;4.90
65290;BMP180;51893;59.754;10.110;2023-04-24T12:20:43;100209.40;;;4.92
65290;BMP180;51893;59.754;10.110;2023-04-24T12:23:11;100206.80;;;4.98
65290;BMP180;51893;59.754;10.110;2023-04-24T12:25:40;100203.80;;;4.90
65290;BMP180;51893;59.754;10.110;2023-04-24T12:28:12;100205.20;;;4.90
65290;BMP180;51893;59.754;10.110;2023-04-24T12:30:48;100208.60;;;4.90
65290;BMP180;51893;59.754;10.110;2023-04-24T12:33:21;100207.80;;;5.00
65290;BMP180;51893;59.754;10.110;2023-04-24T12:35:57;100204.80;;;4.98
65290;BMP180;51893;59.754;10.110;2023-04-24T12:38:29;100204.40;;;4.90
65290;BMP180;51893;59.754;10.110;2023-04-24T12:41:08;100204.40;;;4.90
65290;BMP180;51893;59.754;10.110;2023-04-24T12:43:38;100204.00;;;4.80
65290;BMP180;51893;59.754;10.110;2023-04-24T12:46:06;100203.40;;;4.80
65290;BMP180;51893;59.754;10.110;2023-04-24T12:48:36;100201.00;;;4.70
65290;BMP180;51893;59.754;10.110;2023-04-24T12:51:06;100199.00;;;4.70
65290;BMP180;51893;59.754;10.110;2023-04-24T12:53:34;100193.40;;;4.70
65290;BMP180;51893;59.754;10.110;2023-04-24T12:56:02;100197.00;;;4.70
65290;BMP180;51893;59.754;10.110;2023-04-24T12:58:31;100191.80;;;4.70
65290;BMP180;51893;59.754;10.110;2023-04-24T13:01:00;100191.00;;;4.70
65290;BMP180;51893;59.754;10.110;2023-04-24T13:03:29;100187.60;;;4.70
65290;BMP180;51893;59.754;10.110;2023-04-24T13:05:59;100187.60;;;4.70
65290;BMP180;51893;59.754;10.110;2023-04-24T13:08:28;100187.20;;;4.66
65290;BMP180;51893;59.754;10.110;2023-04-24T13:10:56;100192.80;;;4.60
65290;BMP180;51893;59.754;10.110;2023-04-24T13:13:26;100186.20;;;4.60
65290;BMP180;51893;59.754;10.110;2023-04-24T13:15:55;100183.80;;;4.58
65290;BMP180;51893;59.754;10.110;2023-04-24T13:18:25;100187.00;;;4.50
65290;BMP180;51893;59.754;10.110;2023-04-24T13:20:53;100185.80;;;4.50
65290;BMP180;51893;59.754;10.110;2023-04-24T13:23:22;100174.40;;;4.50
65290;BMP180;51893;59.754;10.110;2023-04-24T13:25:50;100173.60;;;4.50
65290;BMP180;51893;59.754;10.110;2023-04-24T13:28:18;100172.80;;;4.40
65290;BMP180;51893;59.754;10.110;2023-04-24T13:30:46;100170.60;;;4.30
65290;BMP180;51893;59.754;10.110;2023-04-24T13:33:18;100168.20;;;4.30
65290;BMP180;51893;59.754;10.110;2023-04-24T13:35:46;100168.60;;;4.30
65290;BMP180;51893;59.754;10.110;2023-04-24T13:38:14;100165.80;;;4.30
65290;BMP180;51893;59.754;10.110;2023-04-24T13:40:42;100164.20;;;4.30
65290;BMP180;51893;59.754;10.110;2023-04-24T13:43:15;100163.40;;;4.30
65290;BMP180;51893;59.754;10.110;2023-04-24T13:45:43;100163.20;;;4.30
65290;BMP180;51893;59.754;10.110;2023-04-24T13:48:12;100162.40;;;4.24
65290;BMP180;51893;59.754;10.110;2023-04-24T13:50:43;100155.20;;;4.20
65290;BMP180;51893;59.754;10.110;2023-04-24T13:53:12;100158.80;;;4.20
65290;BMP180;51893;59.754;10.110;2023-04-24T13:55:40;100152.60;;;4.10
65290;BMP180;51893;59.754;10.110;2023-04-24T13:58:09;100154.00;;;4.10
65290;BMP180;51893;59.754;10.110;2023-04-24T14:00:42;100153.60;;;4.10
65290;BMP180;51893;59.754;10.110;2023-04-24T14:03:12;100148.60;;;4.00
65290;BMP180;51893;59.754;10.110;2023-04-24T14:05:40;100145.60;;;4.00
65290;BMP180;51893;59.754;10.110;2023-04-24T14:08:09;100144.80;;;4.00
65290;BMP180;51893;59.754;10.110;2023-04-24T14:10:38;100143.80;;;4.00
65290;BMP180;51893;59.754;10.110;2023-04-24T14:13:09;100142.00;;;4.00
65290;BMP180;51893;59.754;10.110;2023-04-24T14:15:40;100131.20;;;4.00
65290;BMP180;51893;59.754;10.110;2023-04-24T14:18:08;100126.00;;;3.90
65290;BMP180;51893;59.754;10.110;2023-04-24T14:20:36;100131.80;;;3.90
65290;BMP180;51893;59.754;10.110;2023-04-24T14:23:04;100127.80;;;3.90
65290;BMP180;51893;59.754;10.110;2023-04-24T14:25:33;100123.80;;;3.90
65290;BMP180;51893;59.754;10.110;2023-04-24T14:28:01;100122.00;;;3.90